createdAt,value
2019-04-29T00:02:22.063Z,6.07
2019-04-29T00:04:50.501Z,6.00
2019-04-29T00:07:18.926Z,5.40
2019-04-29T00:09:49.002Z,6.80
2019-04-29T00:12:17.765Z,7.50
2019-04-29T00:14:47.841Z,13.57
2019-04-29T00:17:26.658Z,6.50
2019-04-29T00:20:05.777Z,6.80
2019-04-29T00:22:34.202Z,9.03
2019-04-29T00:25:02.641Z,7.50
2019-04-29T00:27:31.061Z,7.70
2019-04-29T00:29:59.497Z,7.57
2019-04-29T00:32:27.946Z,7.27
2019-04-29T00:34:56.463Z,7.70
2019-04-29T00:37:26.654Z,7.03
2019-04-29T00:40:05.866Z,6.40
2019-04-29T00:42:47.664Z,7.70
2019-04-29T00:45:16.098Z,7.20
2019-04-29T00:47:44.541Z,7.30
2019-04-29T00:50:13.930Z,7.17
2019-04-29T00:52:42.414Z,6.60
2019-04-29T00:55:12.665Z,7.40
2019-04-29T00:57:41.182Z,7.00
2019-04-29T01:00:12.405Z,6.30
2019-04-29T01:02:41.016Z,7.10
2019-04-29T01:05:09.624Z,6.90
2019-04-29T01:07:38.049Z,6.50
2019-04-29T01:10:06.754Z,6.37
2019-04-29T01:12:36.644Z,6.00
2019-04-29T01:15:06.942Z,7.20
2019-04-29T01:17:35.385Z,7.27
2019-04-29T01:20:05.809Z,6.50
2019-04-29T01:22:34.244Z,6.90
2019-04-29T01:25:02.750Z,6.77
2019-04-29T01:27:32.827Z,6.97
2019-04-29T01:30:01.311Z,7.20
2019-04-29T01:32:30.770Z,6.67
2019-04-29T01:34:59.242Z,7.40
2019-04-29T01:37:35.305Z,7.10
2019-04-29T01:40:08.533Z,7.20
2019-04-29T01:42:38.631Z,6.50
2019-04-29T01:45:07.715Z,6.47
2019-04-29T01:47:36.153Z,6.50
2019-04-29T01:50:06.513Z,6.83
2019-04-29T01:52:34.954Z,6.00
2019-04-29T01:55:03.951Z,7.13
2019-04-29T01:57:32.386Z,6.70
2019-04-29T02:00:00.907Z,8.57
2019-04-29T02:02:29.338Z,8.70
2019-04-29T02:04:57.761Z,8.33
2019-04-29T02:07:28.284Z,10.43
2019-04-29T02:09:58.453Z,9.63
2019-04-29T02:12:26.887Z,10.73
2019-04-29T02:14:55.315Z,12.10
2019-04-29T02:17:23.785Z,12.43
2019-04-29T02:19:52.225Z,13.57
2019-04-29T02:22:22.288Z,14.37
2019-04-29T02:24:52.361Z,14.97
2019-04-29T02:27:20.790Z,13.60
2019-04-29T02:29:49.225Z,13.13
2019-04-29T02:32:17.658Z,15.30
2019-04-29T02:34:46.132Z,15.33
2019-04-29T02:37:16.278Z,16.70
2019-04-29T02:39:47.891Z,17.77
2019-04-29T02:42:34.273Z,17.17
2019-04-29T02:45:04.790Z,16.40
2019-04-29T02:47:33.220Z,16.93
2019-04-29T02:50:01.654Z,16.93
2019-04-29T02:52:30.083Z,17.63
2019-04-29T02:55:00.167Z,17.53
2019-04-29T02:57:32.936Z,19.30
2019-04-29T03:00:15.342Z,18.07
2019-04-29T03:02:45.406Z,17.47
2019-04-29T03:05:18.389Z,18.33
2019-04-29T03:07:47.090Z,19.33
2019-04-29T03:10:15.928Z,16.93
2019-04-29T03:12:44.352Z,18.67
2019-04-29T03:15:14.534Z,17.90
2019-04-29T03:17:43.030Z,17.50
2019-04-29T03:20:25.055Z,17.83
2019-04-29T03:22:55.554Z,15.90
2019-04-29T03:25:23.990Z,17.03
2019-04-29T03:27:52.430Z,18.50
2019-04-29T03:30:21.004Z,18.03
2019-04-29T03:32:49.511Z,16.57
2019-04-29T03:35:17.946Z,17.40
2019-04-29T03:37:46.401Z,17.20
2019-04-29T03:40:14.846Z,16.53
2019-04-29T03:42:43.262Z,16.50
2019-04-29T03:45:11.719Z,15.30
2019-04-29T03:47:40.145Z,16.33
2019-04-29T03:50:08.590Z,15.53
2019-04-29T03:52:37.015Z,16.90
2019-04-29T03:55:06.594Z,16.37
2019-04-29T03:57:36.495Z,15.93
2019-04-29T04:00:11.067Z,15.87
2019-04-29T04:02:43.810Z,16.47
2019-04-29T04:05:31.850Z,17.13
2019-04-29T04:08:04.628Z,17.63
2019-04-29T04:10:33.363Z,16.80
2019-04-29T04:13:01.866Z,19.00
2019-04-29T04:15:30.308Z,20.97
2019-04-29T04:18:00.395Z,18.87
2019-04-29T04:20:28.886Z,20.10
2019-04-29T04:22:57.316Z,21.20
2019-04-29T04:25:25.749Z,19.50
2019-04-29T04:27:54.191Z,20.97
2019-04-29T04:30:23.005Z,20.37
2019-04-29T04:32:51.431Z,20.87
2019-04-29T04:35:19.862Z,19.67
2019-04-29T04:37:48.333Z,20.73
2019-04-29T04:40:21.634Z,22.60
2019-04-29T04:42:50.065Z,19.70
2019-04-29T04:45:18.745Z,20.20
2019-04-29T04:47:47.189Z,19.77
2019-04-29T04:50:16.089Z,20.53
2019-04-29T04:52:44.525Z,20.10
2019-04-29T04:55:13.395Z,20.27
2019-04-29T04:57:41.834Z,21.93
2019-04-29T05:00:12.742Z,18.20
2019-04-29T05:02:41.184Z,21.70
2019-04-29T05:05:09.673Z,20.60
2019-04-29T05:07:38.114Z,19.97
2019-04-29T05:10:06.892Z,21.97
2019-04-29T05:12:35.329Z,21.50
2019-04-29T05:15:04.410Z,20.10
2019-04-29T05:17:32.847Z,21.63
2019-04-29T05:20:01.292Z,20.47
2019-04-29T05:22:29.722Z,21.77
2019-04-29T05:24:58.175Z,23.30
2019-04-29T05:27:26.613Z,22.97
2019-04-29T05:29:55.051Z,21.60
2019-04-29T05:32:24.790Z,21.77
2019-04-29T05:34:55.180Z,21.33
2019-04-29T05:37:25.430Z,21.80
2019-04-29T05:39:53.862Z,21.40
2019-04-29T05:42:22.298Z,22.60
2019-04-29T05:44:55.050Z,21.90
2019-04-29T05:47:25.122Z,22.27
2019-04-29T05:50:11.759Z,22.53
2019-04-29T05:52:46.054Z,20.70
2019-04-29T05:55:15.422Z,20.33
2019-04-29T05:57:44.049Z,21.30
2019-04-29T06:00:13.021Z,17.53
2019-04-29T06:02:41.697Z,19.53
2019-04-29T06:05:10.693Z,22.27
2019-04-29T06:07:39.186Z,20.67
2019-04-29T06:10:08.635Z,21.97
2019-04-29T06:12:37.355Z,24.50
2019-04-29T06:15:07.580Z,23.67
2019-04-29T06:17:40.141Z,23.40
2019-04-29T06:20:06.652Z,22.33
2019-04-29T06:22:37.922Z,23.83
2019-04-29T06:25:06.992Z,25.07
2019-04-29T06:27:35.626Z,26.03
2019-04-29T06:30:08.405Z,25.57
2019-04-29T06:32:36.829Z,24.90
2019-04-29T06:35:10.618Z,24.77
2019-04-29T06:37:36.767Z,23.80
2019-04-29T06:40:06.750Z,28.43
2019-04-29T06:42:35.178Z,26.07
2019-04-29T06:45:06.430Z,29.00
2019-04-29T06:47:34.858Z,30.03
2019-04-29T06:50:06.994Z,27.80
2019-04-29T06:52:35.427Z,31.87
2019-04-29T06:55:05.294Z,29.37
2019-04-29T06:57:34.089Z,31.27
2019-04-29T07:00:02.705Z,32.67
2019-04-29T07:02:31.210Z,31.30
2019-04-29T07:04:59.646Z,30.10
2019-04-29T07:07:28.073Z,31.17
2019-04-29T07:09:56.994Z,31.70
2019-04-29T07:12:25.726Z,29.20
2019-04-29T07:14:54.158Z,29.10
2019-04-29T07:17:22.592Z,27.57
2019-04-29T07:19:51.022Z,30.20
2019-04-29T07:22:20.874Z,30.20
2019-04-29T07:24:49.610Z,27.93
2019-04-29T07:27:18.045Z,28.23
2019-04-29T07:29:46.473Z,31.27
2019-04-29T07:32:14.914Z,27.20
2019-04-29T07:34:43.350Z,27.67
2019-04-29T07:37:11.788Z,28.77
2019-04-29T07:39:40.226Z,24.97
2019-04-29T07:42:08.659Z,30.27
2019-04-29T07:44:44.296Z,27.37
2019-04-29T07:47:11.581Z,28.30
2019-04-29T07:49:40.015Z,27.53
2019-04-29T07:52:09.801Z,26.93
2019-04-29T07:54:38.606Z,29.63
2019-04-29T07:57:07.047Z,24.77
2019-04-29T07:59:38.282Z,24.90
2019-04-29T08:02:05.793Z,24.10
2019-04-29T08:04:34.231Z,22.83
2019-04-29T08:07:02.741Z,23.73
2019-04-29T08:09:31.435Z,23.00
2019-04-29T08:12:00.409Z,23.27
2019-04-29T08:14:32.141Z,24.47
2019-04-29T08:17:00.677Z,23.23
2019-04-29T08:19:31.121Z,23.07
2019-04-29T08:21:59.335Z,22.83
2019-04-29T08:24:27.766Z,20.73
2019-04-29T08:26:56.574Z,21.77
2019-04-29T08:29:25.020Z,20.23
2019-04-29T08:31:57.299Z,18.27
2019-04-29T08:34:24.450Z,19.30
2019-04-29T08:36:53.226Z,17.10
2019-04-29T08:39:25.149Z,18.70
2019-04-29T08:41:51.831Z,20.93
2019-04-29T08:44:30.663Z,19.77
2019-04-29T08:47:09.580Z,19.17
2019-04-29T08:49:38.166Z,17.03
2019-04-29T08:52:06.592Z,19.37
2019-04-29T08:54:37.061Z,17.73
2019-04-29T08:57:06.901Z,19.37
2019-04-29T08:59:35.350Z,17.97
2019-04-29T09:02:09.417Z,19.10
2019-04-29T09:04:35.432Z,17.63
2019-04-29T09:07:12.322Z,18.63
2019-04-29T09:09:34.507Z,20.37
2019-04-29T09:12:02.929Z,18.33
2019-04-29T09:14:31.385Z,18.70
2019-04-29T09:16:59.975Z,17.30
2019-04-29T09:19:28.414Z,18.10
2019-04-29T09:21:58.482Z,18.17
2019-04-29T09:24:26.933Z,18.90
2019-04-29T09:26:56.998Z,17.40
2019-04-29T09:29:36.264Z,16.47
2019-04-29T09:32:05.898Z,16.93
2019-04-29T09:34:34.606Z,16.07
2019-04-29T09:37:03.046Z,16.83
2019-04-29T09:39:43.157Z,17.80
2019-04-29T09:42:08.133Z,15.60
2019-04-29T09:44:52.757Z,16.93
2019-04-29T09:47:21.195Z,16.03
2019-04-29T09:49:49.642Z,15.37
2019-04-29T09:52:18.094Z,14.67
2019-04-29T09:54:46.514Z,16.20
2019-04-29T09:57:14.963Z,16.03
2019-04-29T10:00:05.139Z,17.80
2019-04-29T10:02:48.177Z,17.00
2019-04-29T10:05:27.326Z,17.47
2019-04-29T10:07:55.834Z,17.47
2019-04-29T10:10:24.410Z,19.87
2019-04-29T10:12:54.103Z,17.03
2019-04-29T10:15:27.931Z,20.17
2019-04-29T10:17:58.002Z,19.90
2019-04-29T10:20:28.087Z,18.50
2019-04-29T10:22:56.532Z,19.00
2019-04-29T10:25:24.984Z,19.83
2019-04-29T10:27:53.499Z,21.77
2019-04-29T10:30:26.825Z,21.17
2019-04-29T10:32:54.202Z,20.30
2019-04-29T10:35:22.634Z,21.70
2019-04-29T10:37:51.086Z,22.30
2019-04-29T10:40:29.954Z,21.80
2019-04-29T10:43:03.074Z,21.40
2019-04-29T10:45:40.588Z,22.67
2019-04-29T10:48:16.970Z,24.33
2019-04-29T10:50:52.031Z,23.20
2019-04-29T10:53:17.888Z,23.40
2019-04-29T10:55:47.325Z,23.20
2019-04-29T10:58:16.155Z,24.23
2019-04-29T11:00:57.372Z,23.30
2019-04-29T11:03:25.360Z,22.80
2019-04-29T11:06:00.562Z,23.20
2019-04-29T11:08:38.117Z,24.90
2019-04-29T11:11:06.296Z,24.43
2019-04-29T11:13:34.816Z,26.43
2019-04-29T11:16:03.256Z,26.00
2019-04-29T11:18:32.655Z,24.23
2019-04-29T11:21:01.093Z,25.03
2019-04-29T11:23:34.015Z,26.73
2019-04-29T11:26:04.086Z,24.60
2019-04-29T11:28:34.175Z,26.23
2019-04-29T11:31:02.616Z,26.43
2019-04-29T11:33:40.031Z,25.23
2019-04-29T11:36:13.238Z,26.50
2019-04-29T11:38:41.677Z,22.87
2019-04-29T11:41:12.324Z,26.77
2019-04-29T11:43:40.718Z,26.40
2019-04-29T11:46:10.030Z,24.67
2019-04-29T11:48:39.954Z,25.53
2019-04-29T11:51:12.685Z,24.80
2019-04-29T11:53:41.138Z,24.20
2019-04-29T11:56:09.757Z,24.70
2019-04-29T11:58:42.767Z,24.77
2019-04-29T12:01:37.842Z,25.57
2019-04-29T12:03:58.220Z,26.50
2019-04-29T12:06:26.710Z,25.63
2019-04-29T12:08:55.497Z,24.80
2019-04-29T12:11:23.929Z,25.27
2019-04-29T12:14:03.092Z,26.40
2019-04-29T12:16:31.789Z,24.57
2019-04-29T12:19:02.001Z,26.93
2019-04-29T12:21:32.170Z,27.20
2019-04-29T12:24:01.758Z,28.40
2019-04-29T12:26:30.482Z,26.77
2019-04-29T12:28:58.946Z,25.50
2019-04-29T12:31:29.122Z,26.47
2019-04-29T12:33:59.238Z,24.83
2019-04-29T12:36:27.694Z,26.03
2019-04-29T12:39:12.973Z,27.17
2019-04-29T12:41:49.431Z,27.00
2019-04-29T12:44:19.865Z,26.20
2019-04-29T12:46:52.584Z,26.10
2019-04-29T12:49:21.074Z,24.47
2019-04-29T12:51:49.516Z,26.33
2019-04-29T12:54:18.012Z,27.83
2019-04-29T12:56:47.751Z,24.70
2019-04-29T12:59:16.612Z,24.30
2019-04-29T13:01:58.614Z,25.97
2019-04-29T13:04:39.417Z,25.43
2019-04-29T13:07:12.155Z,25.73
2019-04-29T13:09:44.941Z,22.67
2019-04-29T13:12:19.452Z,23.00
2019-04-29T13:15:02.299Z,23.50
2019-04-29T13:17:30.389Z,23.73
2019-04-29T13:20:02.135Z,22.97
2019-04-29T13:22:30.570Z,22.40
2019-04-29T13:24:59.004Z,21.67
2019-04-29T13:27:27.446Z,24.93
2019-04-29T13:29:55.886Z,23.30
2019-04-29T13:32:25.414Z,25.40
2019-04-29T13:34:55.895Z,24.23
2019-04-29T13:37:24.566Z,24.80
2019-04-29T13:39:55.553Z,23.70
2019-04-29T13:42:23.182Z,21.00
2019-04-29T13:45:07.561Z,19.67
2019-04-29T13:47:32.246Z,18.73
2019-04-29T13:50:17.130Z,20.63
2019-04-29T13:52:32.512Z,20.40
2019-04-29T13:55:16.624Z,21.27
2019-04-29T13:57:31.182Z,22.00
2019-04-29T14:00:13.187Z,19.40
2019-04-29T14:02:43.450Z,19.90
2019-04-29T14:05:13.963Z,21.07
2019-04-29T14:07:42.406Z,14.70
2019-04-29T14:10:14.974Z,13.10
2019-04-29T14:12:48.238Z,13.80
2019-04-29T14:15:12.312Z,13.50
2019-04-29T14:17:40.780Z,12.33
2019-04-29T14:20:10.869Z,12.27
2019-04-29T14:22:39.854Z,14.03
2019-04-29T14:25:08.826Z,12.33
2019-04-29T14:27:37.269Z,13.73
2019-04-29T14:30:10.429Z,14.80
2019-04-29T14:32:42.430Z,13.40
2019-04-29T14:35:27.481Z,13.47
2019-04-29T14:38:04.616Z,14.50
2019-04-29T14:40:26.450Z,13.20
2019-04-29T14:43:02.867Z,12.90
2019-04-29T14:45:40.035Z,14.47
2019-04-29T14:48:41.085Z,13.10
2019-04-29T14:50:58.178Z,12.00
2019-04-29T14:53:26.629Z,11.33
2019-04-29T14:55:55.070Z,12.27
2019-04-29T14:58:24.588Z,11.80
2019-04-29T15:00:55.893Z,12.27
2019-04-29T15:03:28.760Z,12.40
2019-04-29T15:05:57.568Z,12.97
2019-04-29T15:08:26.089Z,10.60
2019-04-29T15:10:54.693Z,11.70
2019-04-29T15:13:24.429Z,11.93
2019-04-29T15:16:14.110Z,10.67
2019-04-29T15:19:02.598Z,11.30
2019-04-29T15:21:45.089Z,11.03
2019-04-29T15:24:10.713Z,12.00
2019-04-29T15:26:39.168Z,12.40
2019-04-29T15:29:07.626Z,12.03
2019-04-29T15:31:36.054Z,11.37
2019-04-29T15:34:08.926Z,10.30
2019-04-29T15:36:35.874Z,10.43
2019-04-29T15:39:11.340Z,11.73
2019-04-29T15:41:37.662Z,11.50
2019-04-29T15:44:08.481Z,10.70
2019-04-29T15:46:46.190Z,10.57
2019-04-29T15:49:06.813Z,12.23
2019-04-29T15:51:35.246Z,12.20
2019-04-29T15:54:03.677Z,13.03
2019-04-29T15:56:33.714Z,12.17
2019-04-29T15:59:08.026Z,11.67
2019-04-29T16:01:32.569Z,14.00
2019-04-29T16:04:02.913Z,11.77
2019-04-29T16:06:33.982Z,11.90
2019-04-29T16:09:15.410Z,11.30
2019-04-29T16:11:51.201Z,9.83
2019-04-29T16:14:21.282Z,10.37
2019-04-29T16:16:49.728Z,10.40
2019-04-29T16:19:18.161Z,9.57
2019-04-29T16:21:46.598Z,9.10
2019-04-29T16:24:26.226Z,8.97
2019-04-29T16:26:45.266Z,10.13
2019-04-29T16:29:16.039Z,9.03
2019-04-29T16:31:44.509Z,9.37
2019-04-29T16:34:12.941Z,8.57
2019-04-29T16:36:43.753Z,8.87
2019-04-29T16:39:12.120Z,9.07
2019-04-29T16:41:42.365Z,8.50
2019-04-29T16:44:34.176Z,8.07
2019-04-29T16:46:42.598Z,7.70
2019-04-29T16:49:11.963Z,7.30
2019-04-29T16:51:40.445Z,6.20
2019-04-29T16:54:12.736Z,7.97
2019-04-29T16:56:39.459Z,7.00
2019-04-29T16:59:09.492Z,6.60
2019-04-29T17:01:39.485Z,7.23
2019-04-29T17:04:08.081Z,7.87
2019-04-29T17:06:41.656Z,7.80
2019-04-29T17:09:12.757Z,6.87
2019-04-29T17:11:42.842Z,6.50
2019-04-29T17:14:14.234Z,6.47
2019-04-29T17:16:43.485Z,7.80
2019-04-29T17:19:12.771Z,5.50
2019-04-29T17:21:41.238Z,5.90
2019-04-29T17:24:09.673Z,5.00
2019-04-29T17:26:40.941Z,5.10
2019-04-29T17:29:38.802Z,8.33
2019-04-29T17:32:17.721Z,7.77
2019-04-29T17:34:58.739Z,6.27
2019-04-29T17:37:18.965Z,5.30
2019-04-29T17:39:47.417Z,4.80
2019-04-29T17:42:15.853Z,5.27
2019-04-29T17:44:45.757Z,4.63
2019-04-29T17:47:32.801Z,4.47
2019-04-29T17:50:14.958Z,5.20
2019-04-29T17:52:43.782Z,4.60
2019-04-29T17:55:15.174Z,4.33
2019-04-29T17:58:00.173Z,4.07
2019-04-29T18:00:43.927Z,4.27
2019-04-29T18:03:22.933Z,5.60
2019-04-29T18:06:07.015Z,4.87
2019-04-29T18:08:49.404Z,4.53
2019-04-29T18:11:18.049Z,3.67
2019-04-29T18:13:46.493Z,4.60
2019-04-29T18:16:25.460Z,4.60
2019-04-29T18:18:57.326Z,4.03
2019-04-29T18:21:37.169Z,4.23
2019-04-29T18:24:10.822Z,3.70
2019-04-29T18:26:44.235Z,5.70
2019-04-29T18:29:11.375Z,4.20
2019-04-29T18:31:39.874Z,4.30
2019-04-29T18:34:08.326Z,3.80
2019-04-29T18:36:36.775Z,4.30
2019-04-29T18:39:08.654Z,4.00
2019-04-29T18:41:37.093Z,5.17
2019-04-29T18:44:07.166Z,4.93
2019-04-29T18:46:35.799Z,4.30
2019-04-29T18:49:06.565Z,4.20
2019-04-29T18:51:34.829Z,4.40
2019-04-29T18:54:03.378Z,4.90
2019-04-29T18:56:32.303Z,3.63
2019-04-29T18:59:01.962Z,4.20
2019-04-29T19:01:30.738Z,4.03
2019-04-29T19:04:09.756Z,3.97
2019-04-29T19:06:40.549Z,4.33
2019-04-29T19:09:17.965Z,3.70
2019-04-29T19:11:39.238Z,3.43
2019-04-29T19:14:07.674Z,3.90
2019-04-29T19:16:39.259Z,3.87
2019-04-29T19:19:06.264Z,3.53
2019-04-29T19:21:34.708Z,4.43
2019-04-29T19:24:04.745Z,4.00
2019-04-29T19:26:34.920Z,3.70
2019-04-29T19:29:06.227Z,4.00
2019-04-29T19:31:36.644Z,4.20
2019-04-29T19:34:05.558Z,2.90
2019-04-29T19:36:35.027Z,4.50
2019-04-29T19:39:07.412Z,3.33
2019-04-29T19:41:35.881Z,4.13
2019-04-29T19:44:07.695Z,4.67
2019-04-29T19:46:38.408Z,3.20
2019-04-29T19:49:09.695Z,3.33
2019-04-29T19:51:39.256Z,6.17
2019-04-29T19:54:07.750Z,3.70
2019-04-29T19:56:36.510Z,4.00
2019-04-29T19:59:12.014Z,3.10
2019-04-29T20:01:37.367Z,5.30
2019-04-29T20:04:22.390Z,17.30
2019-04-29T20:06:49.377Z,13.30
2019-04-29T20:09:22.760Z,21.27
2019-04-29T20:11:50.377Z,8.20
2019-04-29T20:14:26.580Z,4.10
2019-04-29T20:17:13.064Z,3.43
2019-04-29T20:19:55.270Z,4.87
2019-04-29T20:22:18.660Z,3.40
2019-04-29T20:24:50.626Z,3.70
2019-04-29T20:27:20.496Z,3.63
2019-04-29T20:29:48.764Z,4.07
2019-04-29T20:32:17.805Z,4.53
2019-04-29T20:34:46.935Z,3.23
2019-04-29T20:37:19.627Z,4.20
2019-04-29T20:39:47.382Z,5.30
2019-04-29T20:42:16.307Z,4.37
2019-04-29T20:44:49.356Z,4.60
2019-04-29T20:47:22.141Z,3.77
2019-04-29T20:49:46.589Z,4.10
2019-04-29T20:52:20.261Z,3.70
2019-04-29T20:54:52.626Z,5.20
2019-04-29T20:57:20.503Z,4.50
2019-04-29T20:59:50.449Z,4.70
2019-04-29T21:02:29.291Z,4.33
2019-04-29T21:04:47.769Z,5.10
2019-04-29T21:07:23.069Z,4.50
2019-04-29T21:09:46.537Z,5.57
2019-04-29T21:12:34.793Z,5.30
2019-04-29T21:15:27.317Z,6.27
2019-04-29T21:17:58.410Z,5.27
2019-04-29T21:20:26.447Z,4.90
2019-04-29T21:22:57.436Z,4.93
2019-04-29T21:25:29.526Z,4.60
2019-04-29T21:28:00.697Z,5.50
2019-04-29T21:30:35.026Z,4.40
2019-04-29T21:32:56.025Z,4.73
2019-04-29T21:35:28.810Z,4.57
2019-04-29T21:37:58.875Z,5.23
2019-04-29T21:40:31.758Z,5.33
2019-04-29T21:43:06.270Z,4.73
2019-04-29T21:45:32.010Z,4.53
2019-04-29T21:48:00.434Z,4.43
2019-04-29T21:50:34.022Z,4.70
2019-04-29T21:53:01.996Z,5.27
2019-04-29T21:55:29.507Z,3.90
2019-04-29T21:57:58.919Z,4.70
2019-04-29T22:00:29.542Z,4.50
2019-04-29T22:02:59.082Z,4.13
2019-04-29T22:05:27.975Z,4.70
2019-04-29T22:07:56.395Z,4.33
2019-04-29T22:10:29.008Z,5.13
2019-04-29T22:13:01.918Z,4.60
2019-04-29T22:15:32.726Z,8.13
2019-04-29T22:18:01.296Z,3.80
2019-04-29T22:20:26.896Z,5.70
2019-04-29T22:22:55.873Z,3.77
2019-04-29T22:25:25.703Z,3.93
2019-04-29T22:27:55.372Z,4.60
2019-04-29T22:30:24.202Z,4.37
2019-04-29T22:32:56.133Z,4.27
2019-04-29T22:35:22.869Z,3.90
2019-04-29T22:37:51.289Z,4.03
2019-04-29T22:40:19.722Z,3.80
2019-04-29T22:43:25.387Z,4.57
2019-04-29T22:45:54.038Z,4.23
2019-04-29T22:48:22.476Z,3.80
2019-04-29T22:50:50.898Z,3.80
2019-04-29T22:53:19.337Z,3.97
2019-04-29T22:55:47.781Z,3.53
2019-04-29T22:58:16.211Z,4.37
2019-04-29T23:00:44.645Z,3.80
2019-04-29T23:03:13.358Z,4.00
2019-04-29T23:05:41.951Z,3.67
2019-04-29T23:08:10.381Z,4.17
2019-04-29T23:10:38.827Z,5.37
2019-04-29T23:13:07.261Z,4.23
2019-04-29T23:15:35.932Z,3.97
2019-04-29T23:18:06.033Z,3.80
2019-04-29T23:20:52.047Z,4.00
2019-04-29T23:23:33.424Z,4.80
2019-04-29T23:25:59.839Z,4.90
2019-04-29T23:28:28.526Z,5.17
2019-04-29T23:30:57.149Z,5.70
2019-04-29T23:33:26.414Z,5.60
2019-04-29T23:35:56.111Z,6.40
2019-04-29T23:38:25.586Z,6.40
2019-04-29T23:40:54.801Z,5.90
2019-04-29T23:43:28.480Z,5.80
2019-04-29T23:45:56.997Z,5.70
2019-04-29T23:48:38.107Z,5.97
2019-04-29T23:50:58.108Z,6.20
2019-04-29T23:53:26.635Z,5.97
2019-04-29T23:55:55.775Z,5.80
2019-04-29T23:58:27.509Z,5.83
